Time;durP1;ratioP1;P1;durP2;ratioP2;P2;SDS_P1;SDS_P2;PMS_P1;PMS_P2;Temp;Humidity;BMP_temperature;BMP_pressure;BME280_temperature;BME280_humidity;BME280_pressure;Samples;Min_cycle;Max_cycle;Signal;HPM_P1;HPM_P2
2023/03/27 00:00:31;;;;;;;;;;;4.10;74.70;;;;;;5057458;28;20406;-77
2023/03/27 00:02:57;;;;;;;;;;;4.10;75.20;;;;;;5064678;28;19936;-77
2023/03/27 00:05:23;;;;;;;;;;;4.10;75.60;;;;;;5035014;28;20007;-77
2023/03/27 00:07:54;;;;;;;;;;;4.00;76.10;;;;;;5051683;28;19951;-77
2023/03/27 00:10:21;;;;;;;;;;;4.10;75.90;;;;;;5041380;28;19909;-76
2023/03/27 00:12:46;;;;;;;;;;;4.10;75.70;;;;;;5039941;28;19917;-77
2023/03/27 00:15:18;;;;;;;;;;;4.10;75.70;;;;;;5052370;28;20429;-77
2023/03/27 00:17:48;;;;;;;;;;;4.10;75.20;;;;;;5033366;28;20019;-76
2023/03/27 00:20:14;;;;;;;;;;;4.00;76.60;;;;;;5035018;28;19909;-76
2023/03/27 00:22:40;;;;;;;;;;;4.00;76.40;;;;;;5051008;28;19932;-77
2023/03/27 00:25:06;;;;;;;;;;;4.00;76.20;;;;;;5032688;28;19924;-77
2023/03/27 00:27:32;;;;;;;;;;;4.00;77.00;;;;;;5042964;28;19919;-78
2023/03/27 00:29:57;;;;;;;;;;;3.90;77.70;;;;;;5047751;28;20007;-77
2023/03/27 00:32:23;;;;;;;;;;;3.90;77.60;;;;;;5037121;28;19916;-77
2023/03/27 00:34:48;;;;;;;;;;;3.80;77.50;;;;;;5033670;28;19917;-77
2023/03/27 00:37:15;;;;;;;;;;;3.80;77.90;;;;;;5057659;28;19909;-77
2023/03/27 00:39:41;;;;;;;;;;;4.00;77.70;;;;;;5053279;28;19920;-77
2023/03/27 00:42:12;;;;;;;;;;;4.00;78.00;;;;;;5028697;28;19912;-77
2023/03/27 00:44:38;;;;;;;;;;;3.80;78.40;;;;;;5047885;28;19923;-77
2023/03/27 00:47:03;;;;;;;;;;;3.80;78.90;;;;;;5037564;28;20433;-77
2023/03/27 00:49:33;;;;;;;;;;;3.80;78.90;;;;;;5050069;28;19916;-77
2023/03/27 00:52:00;;;;;;;;;;;3.80;79.30;;;;;;5039666;28;19924;-77
2023/03/27 00:54:28;;;;;;;;;;;3.80;78.30;;;;;;5038929;28;19974;-77
2023/03/27 00:56:56;;;;;;;;;;;3.80;78.10;;;;;;5044784;28;19913;-78
2023/03/27 00:59:23;;;;;;;;;;;3.70;79.20;;;;;;5047965;28;20066;-76
2023/03/27 01:01:49;;;;;;;;;;;3.70;79.20;;;;;;5043509;28;19925;-77
2023/03/27 01:04:20;;;;;;;;;;;3.60;79.80;;;;;;5054881;28;19913;-77
2023/03/27 01:06:46;;;;;;;;;;;3.80;78.60;;;;;;5043132;28;19913;-77
2023/03/27 01:09:11;;;;;;;;;;;3.80;79.10;;;;;;5048103;28;20332;-77
2023/03/27 01:11:45;;;;;;;;;;;3.70;79.40;;;;;;5050287;28;19916;-77
2023/03/27 01:14:10;;;;;;;;;;;3.80;78.20;;;;;;5049109;28;19962;-77
2023/03/27 01:16:54;;;;;;;;;;;3.70;78.80;;;;;;5031692;28;20310;-77
2023/03/27 01:19:27;;;;;;;;;;;3.60;79.20;;;;;;5049082;28;19919;-77
2023/03/27 01:22:10;;;;;;;;;;;3.60;78.60;;;;;;5049859;28;19919;-77
2023/03/27 01:24:37;;;;;;;;;;;3.50;78.90;;;;;;5045165;28;19913;-77
2023/03/27 01:27:09;;;;;;;;;;;3.50;78.50;;;;;;5046874;28;20372;-77
2023/03/27 01:29:34;;;;;;;;;;;3.40;79.40;;;;;;5051612;28;19912;-77
2023/03/27 01:32:19;;;;;;;;;;;3.50;79.10;;;;;;5042621;28;20368;-77
2023/03/27 01:34:45;;;;;;;;;;;3.50;79.80;;;;;;5045149;28;19909;-77
2023/03/27 01:37:20;;;;;;;;;;;3.50;79.60;;;;;;5030454;28;19920;-77
2023/03/27 01:39:58;;;;;;;;;;;3.50;79.20;;;;;;5032584;28;20008;-77
2023/03/27 01:42:34;;;;;;;;;;;3.50;78.50;;;;;;5037101;28;19920;-77
2023/03/27 01:45:29;;;;;;;;;;;3.50;79.00;;;;;;5027941;28;19925;-77
2023/03/27 01:48:05;;;;;;;;;;;3.30;78.80;;;;;;5016038;28;20300;-77
2023/03/27 01:50:51;;;;;;;;;;;3.30;79.90;;;;;;5025269;28;19971;-78
2023/03/27 01:53:21;;;;;;;;;;;3.30;79.40;;;;;;5020214;28;19909;-77
2023/03/27 01:55:57;;;;;;;;;;;3.20;79.40;;;;;;5030210;28;19999;-77
2023/03/27 01:58:27;;;;;;;;;;;3.20;80.00;;;;;;5036511;28;19921;-77
2023/03/27 02:00:55;;;;;;;;;;;3.20;79.80;;;;;;5024453;28;19959;-77
2023/03/27 02:03:28;;;;;;;;;;;3.20;79.50;;;;;;5049115;28;19913;-77
2023/03/27 02:05:57;;;;;;;;;;;3.20;79.80;;;;;;5022571;28;19986;-77
2023/03/27 02:08:25;;;;;;;;;;;3.20;80.10;;;;;;5046355;28;19916;-77
2023/03/27 02:10:54;;;;;;;;;;;3.20;80.00;;;;;;5041568;28;20269;-77
2023/03/27 02:13:22;;;;;;;;;;;3.20;80.20;;;;;;5036915;28;19912;-77
2023/03/27 02:15:49;;;;;;;;;;;3.30;79.70;;;;;;5047747;28;19958;-77
2023/03/27 02:18:26;;;;;;;;;;;3.30;79.50;;;;;;5051988;28;19924;-77
2023/03/27 02:20:52;;;;;;;;;;;3.20;79.70;;;;;;5034080;28;19919;-77
2023/03/27 02:23:17;;;;;;;;;;;3.20;79.60;;;;;;5049211;28;20019;-77
2023/03/27 02:25:44;;;;;;;;;;;3.20;79.60;;;;;;5038117;28;20375;-77
2023/03/27 02:28:28;;;;;;;;;;;3.20;79.50;;;;;;5043833;28;20031;-77
2023/03/27 02:31:12;;;;;;;;;;;3.10;79.80;;;;;;5048370;28;19924;-77
2023/03/27 02:33:46;;;;;;;;;;;3.20;79.50;;;;;;5051298;28;19913;-78
2023/03/27 02:36:28;;;;;;;;;;;3.10;79.50;;;;;;5054392;28;19963;-78
2023/03/27 02:39:00;;;;;;;;;;;3.00;79.60;;;;;;5038726;28;19951;-77
2023/03/27 02:41:29;;;;;;;;;;;3.10;79.90;;;;;;5035735;28;19924;-77
2023/03/27 02:43:57;;;;;;;;;;;3.00;80.80;;;;;;5041234;28;20395;-77
2023/03/27 02:46:27;;;;;;;;;;;2.90;80.10;;;;;;5044909;28;19917;-77
2023/03/27 02:48:55;;;;;;;;;;;2.80;80.70;;;;;;5029986;28;20372;-77
2023/03/27 02:51:23;;;;;;;;;;;2.90;81.30;;;;;;5042227;28;19944;-77
2023/03/27 02:54:02;;;;;;;;;;;2.90;81.10;;;;;;5038278;28;19917;-77
2023/03/27 02:56:30;;;;;;;;;;;2.80;81.50;;;;;;5036636;28;19944;-77
2023/03/27 02:58:59;;;;;;;;;;;2.90;81.30;;;;;;5047147;28;19924;-77
2023/03/27 03:01:25;;;;;;;;;;;2.90;81.60;;;;;;5051082;28;19917;-77
2023/03/27 03:03:54;;;;;;;;;;;2.90;80.70;;;;;;5052593;28;20011;-77
2023/03/27 03:06:20;;;;;;;;;;;3.00;80.20;;;;;;5054340;28;20423;-77
2023/03/27 03:08:46;;;;;;;;;;;3.00;80.30;;;;;;5030822;28;19913;-78
2023/03/27 03:11:13;;;;;;;;;;;3.00;80.10;;;;;;5047571;28;19970;-77
2023/03/27 03:13:39;;;;;;;;;;;2.90;80.90;;;;;;5034867;28;19916;-77
2023/03/27 03:16:06;;;;;;;;;;;2.80;81.70;;;;;;5052098;28;19913;-77
2023/03/27 03:18:31;;;;;;;;;;;2.80;81.00;;;;;;5051505;28;19913;-77
2023/03/27 03:20:57;;;;;;;;;;;2.90;80.10;;;;;;5056220;28;20342;-76
2023/03/27 03:23:23;;;;;;;;;;;2.90;79.50;;;;;;5051622;28;19917;-77
2023/03/27 03:25:55;;;;;;;;;;;2.90;80.60;;;;;;5040060;28;19920;-76
2023/03/27 03:28:28;;;;;;;;;;;2.80;80.60;;;;;;5043627;28;20265;-76
2023/03/27 03:30:54;;;;;;;;;;;2.80;80.20;;;;;;5046585;28;19917;-77
2023/03/27 03:33:20;;;;;;;;;;;2.70;80.70;;;;;;5054583;28;20364;-77
2023/03/27 03:35:47;;;;;;;;;;;2.80;81.10;;;;;;5052445;28;19909;-76
2023/03/27 03:38:12;;;;;;;;;;;2.70;80.70;;;;;;5043870;28;20291;-77
2023/03/27 03:40:38;;;;;;;;;;;2.70;81.10;;;;;;5036440;28;19913;-77
2023/03/27 03:43:03;;;;;;;;;;;2.60;81.30;;;;;;5044421;28;20043;-77
2023/03/27 03:45:29;;;;;;;;;;;2.60;80.30;;;;;;5035566;28;19925;-77
2023/03/27 03:47:54;;;;;;;;;;;2.60;80.70;;;;;;5033719;28;19912;-78
2023/03/27 03:50:20;;;;;;;;;;;2.60;81.00;;;;;;5040992;28;19913;-77
2023/03/27 03:52:46;;;;;;;;;;;2.60;80.90;;;;;;5038060;28;19919;-77
2023/03/27 03:55:11;;;;;;;;;;;2.60;81.10;;;;;;5055205;28;19912;-77
2023/03/27 03:57:37;;;;;;;;;;;2.60;80.60;;;;;;5049706;28;19921;-77
2023/03/27 04:00:10;;;;;;;;;;;2.60;80.40;;;;;;5052056;28;20415;-77
2023/03/27 04:02:37;;;;;;;;;;;2.60;80.60;;;;;;5056828;22;19960;-81
2023/03/27 04:05:03;;;;;;;;;;;2.60;80.80;;;;;;5052091;28;19920;-80
2023/03/27 04:07:30;;;;;;;;;;;2.60;80.80;;;;;;5048108;28;19920;-82
2023/03/27 04:09:58;;;;;;;;;;;2.60;81.10;;;;;;5053504;28;19913;-81
2023/03/27 04:12:23;;;;;;;;;;;2.60;81.50;;;;;;5051811;28;19913;-82
2023/03/27 04:14:49;;;;;;;;;;;2.60;81.30;;;;;;5051413;28;19913;-81
2023/03/27 04:17:14;;;;;;;;;;;2.60;81.20;;;;;;5051846;28;19921;-81
2023/03/27 04:19:40;;;;;;;;;;;2.70;81.20;;;;;;5050602;28;19913;-81
2023/03/27 04:22:06;;;;;;;;;;;2.70;80.80;;;;;;5054668;28;19921;-81
2023/03/27 04:24:31;;;;;;;;;;;2.60;80.50;;;;;;5048325;28;19913;-81
2023/03/27 04:27:00;;;;;;;;;;;2.60;81.40;;;;;;5057699;28;20003;-80
2023/03/27 04:29:29;;;;;;;;;;;2.70;80.80;;;;;;5056509;28;19913;-79
2023/03/27 04:31:57;;;;;;;;;;;2.60;80.70;;;;;;5047616;28;19920;-81
2023/03/27 04:34:23;;;;;;;;;;;2.60;81.60;;;;;;5057392;28;19912;-81
2023/03/27 04:36:49;;;;;;;;;;;2.60;82.00;;;;;;5057852;28;19920;-82
2023/03/27 04:39:16;;;;;;;;;;;2.60;81.60;;;;;;5049747;28;20012;-81
2023/03/27 04:41:48;;;;;;;;;;;2.60;81.10;;;;;;5054494;28;20405;-81
2023/03/27 04:44:16;;;;;;;;;;;2.70;81.20;;;;;;5058805;28;19913;-81
2023/03/27 04:46:43;;;;;;;;;;;2.70;80.60;;;;;;5061873;28;19936;-81
2023/03/27 04:49:08;;;;;;;;;;;2.60;81.70;;;;;;5065938;28;20382;-81
2023/03/27 04:51:34;;;;;;;;;;;2.60;82.30;;;;;;5062454;28;19913;-81
2023/03/27 04:54:03;;;;;;;;;;;2.70;81.70;;;;;;5064259;28;19920;-81
2023/03/27 04:56:29;;;;;;;;;;;2.60;81.40;;;;;;5064233;28;19975;-81
2023/03/27 04:58:55;;;;;;;;;;;2.70;81.40;;;;;;5067091;28;19919;-80
2023/03/27 05:01:21;;;;;;;;;;;2.80;81.20;;;;;;5055326;28;19913;-81
2023/03/27 05:03:48;;;;;;;;;;;2.80;81.50;;;;;;5057477;28;19956;-81
2023/03/27 05:06:14;;;;;;;;;;;2.80;81.20;;;;;;5056406;28;20350;-81
2023/03/27 05:08:39;;;;;;;;;;;2.80;81.20;;;;;;5061149;28;19927;-81
2023/03/27 05:11:06;;;;;;;;;;;2.80;81.10;;;;;;5066123;28;19947;-81
2023/03/27 05:13:32;;;;;;;;;;;2.70;81.30;;;;;;5055647;28;20275;-81
2023/03/27 05:16:00;;;;;;;;;;;2.70;81.70;;;;;;5061759;28;19916;-81
2023/03/27 05:18:29;;;;;;;;;;;2.70;81.70;;;;;;5065641;28;19913;-81
2023/03/27 05:20:58;;;;;;;;;;;2.80;81.10;;;;;;5060189;28;19912;-81
2023/03/27 05:23:24;;;;;;;;;;;2.60;81.30;;;;;;5058868;28;19976;-81
2023/03/27 05:25:50;;;;;;;;;;;2.70;81.50;;;;;;5046857;28;20374;-81
2023/03/27 05:28:15;;;;;;;;;;;2.70;81.50;;;;;;5052186;28;19927;-80
2023/03/27 05:30:41;;;;;;;;;;;2.70;82.40;;;;;;5046558;28;20400;-80
2023/03/27 05:33:06;;;;;;;;;;;2.80;82.50;;;;;;5054037;28;19959;-81
2023/03/27 05:35:33;;;;;;;;;;;2.70;81.70;;;;;;5046936;28;19908;-81
2023/03/27 05:37:59;;;;;;;;;;;2.80;82.10;;;;;;5062535;28;19916;-81
2023/03/27 05:40:25;;;;;;;;;;;2.90;82.10;;;;;;5061426;28;19915;-80
2023/03/27 05:42:52;;;;;;;;;;;3.00;82.00;;;;;;5061633;28;19940;-82
2023/03/27 05:45:17;;;;;;;;;;;3.00;82.00;;;;;;5045664;28;20401;-81
2023/03/27 05:47:50;;;;;;;;;;;3.00;82.00;;;;;;5063976;28;19912;-81
2023/03/27 05:50:18;;;;;;;;;;;3.10;81.40;;;;;;5060112;28;19917;-80
2023/03/27 05:52:43;;;;;;;;;;;3.20;81.60;;;;;;5056718;28;19917;-82
2023/03/27 05:55:09;;;;;;;;;;;3.20;81.60;;;;;;5056924;28;19913;-81
2023/03/27 05:57:38;;;;;;;;;;;3.30;81.70;;;;;;5066286;28;19916;-81
2023/03/27 06:00:15;;;;;;;;;;;3.30;81.50;;;;;;5054643;28;19920;-82
2023/03/27 06:02:44;;;;;;;;;;;3.30;81.00;;;;;;5059487;28;19956;-80
2023/03/27 06:05:12;;;;;;;;;;;3.30;81.70;;;;;;5054540;28;19917;-81
2023/03/27 06:07:37;;;;;;;;;;;3.30;81.10;;;;;;5067040;28;19928;-81
2023/03/27 06:10:06;;;;;;;;;;;3.40;81.20;;;;;;5057721;28;19912;-81
2023/03/27 06:12:33;;;;;;;;;;;3.50;81.10;;;;;;5054529;28;19948;-81
2023/03/27 06:14:59;;;;;;;;;;;3.60;81.70;;;;;;5045400;28;20448;-80
2023/03/27 06:17:25;;;;;;;;;;;3.70;80.20;;;;;;5048453;28;19913;-79
2023/03/27 06:19:50;;;;;;;;;;;3.60;80.50;;;;;;5061164;28;19938;-80
2023/03/27 06:22:16;;;;;;;;;;;3.60;80.60;;;;;;5052002;28;20007;-81
2023/03/27 06:24:41;;;;;;;;;;;3.50;80.90;;;;;;5048291;28;19928;-80
2023/03/27 06:27:07;;;;;;;;;;;3.50;80.60;;;;;;5056888;28;19917;-79
2023/03/27 06:29:33;;;;;;;;;;;3.50;80.40;;;;;;5047619;28;20035;-80
2023/03/27 06:32:00;;;;;;;;;;;3.50;81.00;;;;;;5051535;28;19920;-80
2023/03/27 06:34:25;;;;;;;;;;;3.50;81.40;;;;;;5050186;28;20397;-80
2023/03/27 06:36:51;;;;;;;;;;;3.50;81.00;;;;;;5053047;28;19916;-79
2023/03/27 06:39:16;;;;;;;;;;;3.50;81.20;;;;;;5054719;28;19932;-80
2023/03/27 06:41:42;;;;;;;;;;;3.60;80.20;;;;;;5050270;28;19916;-80
2023/03/27 06:44:07;;;;;;;;;;;3.60;80.90;;;;;;5045784;28;19920;-79
2023/03/27 06:46:33;;;;;;;;;;;3.70;79.80;;;;;;5039302;28;19959;-79
2023/03/27 06:48:58;;;;;;;;;;;3.70;79.20;;;;;;5051732;28;20004;-79
2023/03/27 06:51:25;;;;;;;;;;;3.70;79.90;;;;;;5053639;28;19913;-79
2023/03/27 06:53:51;;;;;;;;;;;3.60;80.30;;;;;;5051043;28;19913;-79
2023/03/27 06:56:18;;;;;;;;;;;3.70;80.20;;;;;;5043752;28;19924;-80
2023/03/27 06:58:43;;;;;;;;;;;3.60;80.20;;;;;;5064285;28;19917;-81
2023/03/27 07:01:09;;;;;;;;;;;3.70;80.40;;;;;;5050929;28;19971;-80
2023/03/27 07:03:34;;;;;;;;;;;3.70;80.60;;;;;;5047563;28;19927;-79
2023/03/27 07:06:00;;;;;;;;;;;3.90;79.90;;;;;;5046656;28;20323;-79
2023/03/27 07:08:25;;;;;;;;;;;3.90;79.20;;;;;;5052474;28;20325;-80
2023/03/27 07:10:51;;;;;;;;;;;4.00;79.10;;;;;;5049178;28;20004;-79
2023/03/27 07:13:17;;;;;;;;;;;4.00;78.60;;;;;;5048086;28;19948;-79
2023/03/27 07:15:43;;;;;;;;;;;4.00;78.60;;;;;;5051308;28;20045;-79
2023/03/27 07:18:09;;;;;;;;;;;4.10;78.10;;;;;;5055521;28;19920;-79
2023/03/27 07:20:34;;;;;;;;;;;4.20;77.80;;;;;;5066313;28;19952;-78
2023/03/27 07:23:00;;;;;;;;;;;4.10;78.30;;;;;;5056722;28;20392;-78
2023/03/27 07:25:27;;;;;;;;;;;4.10;78.10;;;;;;5056516;28;19917;-80
2023/03/27 07:27:58;;;;;;;;;;;4.30;77.30;;;;;;5050471;28;19921;-79
2023/03/27 07:30:24;;;;;;;;;;;4.30;77.10;;;;;;5057822;28;19920;-80
2023/03/27 07:32:50;;;;;;;;;;;4.30;77.00;;;;;;5054922;28;19913;-79
2023/03/27 07:35:15;;;;;;;;;;;4.30;77.60;;;;;;5055300;28;20405;-79
2023/03/27 07:37:41;;;;;;;;;;;4.30;76.80;;;;;;5058520;28;19913;-79
2023/03/27 07:40:08;;;;;;;;;;;4.40;76.30;;;;;;5053712;28;19917;-79
2023/03/27 07:42:34;;;;;;;;;;;4.50;75.40;;;;;;5057451;28;20373;-79
2023/03/27 07:45:00;;;;;;;;;;;4.60;75.10;;;;;;5051867;28;19924;-80
2023/03/27 07:47:27;;;;;;;;;;;4.60;74.40;;;;;;5040463;28;19921;-79
2023/03/27 07:49:52;;;;;;;;;;;4.80;73.80;;;;;;5046152;28;19913;-79
2023/03/27 07:52:18;;;;;;;;;;;4.70;74.40;;;;;;5041712;28;19939;-79
2023/03/27 07:54:44;;;;;;;;;;;4.80;73.20;;;;;;5045051;28;19917;-81
2023/03/27 07:57:10;;;;;;;;;;;4.80;74.00;;;;;;5044715;28;21378;-79
2023/03/27 07:59:35;;;;;;;;;;;4.80;74.40;;;;;;5050946;28;19923;-79
2023/03/27 08:02:01;;;;;;;;;;;4.90;73.90;;;;;;5051392;28;19935;-79
2023/03/27 08:04:27;;;;;;;;;;;4.90;72.90;;;;;;5043240;28;20411;-78
2023/03/27 08:06:53;;;;;;;;;;;5.00;72.40;;;;;;5049689;28;19951;-79
2023/03/27 08:09:19;;;;;;;;;;;5.10;72.50;;;;;;5052796;28;19984;-79
2023/03/27 08:11:45;;;;;;;;;;;5.10;72.50;;;;;;5043084;28;20016;-79
2023/03/27 08:14:11;;;;;;;;;;;5.10;70.60;;;;;;5050278;28;19920;-78
2023/03/27 08:16:36;;;;;;;;;;;5.10;69.80;;;;;;5051438;28;19917;-82
2023/03/27 08:19:03;;;;;;;;;;;5.10;70.40;;;;;;5046760;28;19920;-80
2023/03/27 08:21:32;;;;;;;;;;;5.10;69.90;;;;;;5049083;28;19979;-79
2023/03/27 08:23:58;;;;;;;;;;;5.20;69.80;;;;;;5047754;28;19928;-79
2023/03/27 08:26:25;;;;;;;;;;;5.50;69.00;;;;;;5048053;28;20374;-79
2023/03/27 08:28:54;;;;;;;;;;;5.60;69.30;;;;;;5056151;28;19983;-79
2023/03/27 08:31:20;;;;;;;;;;;5.70;70.00;;;;;;5051388;28;20390;-79
2023/03/27 08:33:45;;;;;;;;;;;5.80;69.10;;;;;;5057457;28;19919;-78
2023/03/27 08:36:13;;;;;;;;;;;5.80;68.10;;;;;;5050481;28;19913;-80
2023/03/27 08:38:40;;;;;;;;;;;5.90;67.50;;;;;;5042715;28;19978;-78
2023/03/27 08:41:06;;;;;;;;;;;5.80;67.40;;;;;;5046042;28;19978;-78
2023/03/27 08:43:42;;;;;;;;;;;5.90;67.40;;;;;;5048599;28;19928;-78
2023/03/27 08:46:20;;;;;;;;;;;5.90;67.80;;;;;;5060749;28;20008;-78
2023/03/27 08:48:50;;;;;;;;;;;5.90;68.90;;;;;;5058119;28;19920;-78
2023/03/27 08:51:24;;;;;;;;;;;6.10;67.20;;;;;;5054129;28;19932;-80
2023/03/27 08:54:03;;;;;;;;;;;6.00;66.20;;;;;;5044124;28;19923;-78
2023/03/27 08:56:28;;;;;;;;;;;6.10;65.30;;;;;;5050207;28;19999;-78
2023/03/27 08:58:54;;;;;;;;;;;6.10;66.60;;;;;;5044061;28;20062;-78
2023/03/27 09:01:25;;;;;;;;;;;6.10;67.00;;;;;;5038145;28;19927;-82
2023/03/27 09:04:17;;;;;;;;;;;6.20;67.50;;;;;;5045360;28;19963;-78
2023/03/27 09:06:57;;;;;;;;;;;6.20;67.70;;;;;;5049819;28;20065;-80
2023/03/27 09:09:37;;;;;;;;;;;6.10;67.20;;;;;;5048572;28;20155;-81
2023/03/27 09:12:21;;;;;;;;;;;6.00;66.20;;;;;;5056016;28;19956;-81
2023/03/27 09:14:58;;;;;;;;;;;6.10;65.80;;;;;;5051746;28;20378;-80
2023/03/27 09:17:31;;;;;;;;;;;6.10;66.10;;;;;;5050488;28;19921;-80
2023/03/27 09:20:09;;;;;;;;;;;6.10;64.90;;;;;;5055614;28;19981;-79
2023/03/27 09:22:42;;;;;;;;;;;6.10;65.30;;;;;;5049432;28;20378;-80
2023/03/27 09:25:15;;;;;;;;;;;6.20;66.20;;;;;;5043405;28;19917;-79
2023/03/27 09:27:42;;;;;;;;;;;6.30;65.40;;;;;;5051214;28;19923;-79
2023/03/27 09:30:11;;;;;;;;;;;6.30;67.20;;;;;;5043461;28;19940;-80
2023/03/27 09:32:37;;;;;;;;;;;6.50;65.50;;;;;;5060557;28;19924;-80
2023/03/27 09:35:06;;;;;;;;;;;6.50;65.30;;;;;;5048644;28;19912;-80
2023/03/27 09:37:31;;;;;;;;;;;6.40;65.40;;;;;;5051979;28;20008;-82
2023/03/27 09:39:58;;;;;;;;;;;6.30;64.40;;;;;;5053801;28;19964;-80
2023/03/27 09:42:32;;;;;;;;;;;6.30;65.60;;;;;;5045237;28;19942;-81
2023/03/27 09:45:00;;;;;;;;;;;6.30;64.90;;;;;;5046746;28;19920;-82
2023/03/27 09:47:30;;;;;;;;;;;6.50;64.70;;;;;;5055936;28;19956;-79
2023/03/27 09:50:14;;;;;;;;;;;6.60;63.60;;;;;;5052849;28;19917;-79
2023/03/27 09:52:40;;;;;;;;;;;6.70;64.10;;;;;;5055341;28;19971;-80
2023/03/27 09:55:35;;;;;;;;;;;6.80;62.90;;;;;;5051796;28;20016;-80
2023/03/27 09:58:15;;;;;;;;;;;6.80;62.70;;;;;;5034172;28;19913;-79
2023/03/27 10:00:40;;;;;;;;;;;6.90;63.00;;;;;;5047831;28;19961;-79
2023/03/27 10:03:12;;;;;;;;;;;7.00;60.50;;;;;;5071684;22;19935;-84
2023/03/27 10:05:38;;;;;;;;;;;7.00;58.90;;;;;;5045888;28;19929;-86
2023/03/27 10:08:18;;;;;;;;;;;6.80;60.50;;;;;;5043109;28;20275;-86
2023/03/27 10:10:44;;;;;;;;;;;7.00;61.30;;;;;;5045083;28;19971;-86
2023/03/27 10:13:12;;;;;;;;;;;7.00;60.50;;;;;;5053827;28;19916;-87
2023/03/27 10:15:38;;;;;;;;;;;7.00;59.00;;;;;;5039099;28;19917;-87
2023/03/27 10:18:21;;;;;;;;;;;7.00;58.80;;;;;;5041132;28;19917;-87
2023/03/27 10:20:50;;;;;;;;;;;7.10;58.60;;;;;;5051393;28;19913;-86
2023/03/27 10:23:22;;;;;;;;;;;7.10;58.10;;;;;;5046935;28;20020;-88
2023/03/27 10:25:48;;;;;;;;;;;7.10;58.40;;;;;;5049985;28;19963;-87
2023/03/27 10:28:20;;;;;;;;;;;7.10;59.00;;;;;;5048638;28;20019;-86
2023/03/27 10:30:45;;;;;;;;;;;7.10;58.30;;;;;;5049921;28;19913;-86
2023/03/27 10:33:11;;;;;;;;;;;7.10;58.10;;;;;;5040516;28;20358;-86
2023/03/27 10:35:38;;;;;;;;;;;7.10;60.40;;;;;;5055131;28;20016;-87
2023/03/27 10:38:12;;;;;;;;;;;7.20;57.70;;;;;;5053720;28;19913;-86
2023/03/27 10:40:49;;;;;;;;;;;7.20;57.00;;;;;;5053045;28;19947;-89
2023/03/27 10:43:26;;;;;;;;;;;7.10;58.30;;;;;;5052496;28;19927;-89
2023/03/27 10:45:53;;;;;;;;;;;7.00;59.90;;;;;;5049268;28;19972;-87
2023/03/27 10:48:37;;;;;;;;;;;6.70;59.00;;;;;;5041784;28;19908;-88
2023/03/27 10:51:12;;;;;;;;;;;6.60;59.60;;;;;;5053814;28;19921;-88
2023/03/27 10:53:50;;;;;;;;;;;6.80;56.90;;;;;;5047802;28;19905;-89
2023/03/27 10:56:25;;;;;;;;;;;6.90;58.60;;;;;;5070365;28;19913;-87
2023/03/27 10:59:07;;;;;;;;;;;6.90;59.60;;;;;;5070080;28;19984;-88
2023/03/27 11:01:54;;;;;;;;;;;7.00;60.30;;;;;;5068595;28;19944;-87
2023/03/27 11:04:24;;;;;;;;;;;7.10;60.70;;;;;;5119040;22;19952;-76
2023/03/27 11:06:52;;;;;;;;;;;7.20;58.60;;;;;;5056060;28;19917;-77
2023/03/27 11:09:22;;;;;;;;;;;7.30;56.90;;;;;;5060538;28;19912;-76
2023/03/27 11:11:56;;;;;;;;;;;7.50;56.50;;;;;;5052962;28;19913;-76
2023/03/27 11:14:31;;;;;;;;;;;7.60;56.30;;;;;;5062230;28;19912;-74
2023/03/27 11:17:02;;;;;;;;;;;7.90;55.30;;;;;;5066163;28;19929;-75
2023/03/27 11:19:46;;;;;;;;;;;8.10;55.60;;;;;;5058455;28;19913;-78
2023/03/27 11:22:18;;;;;;;;;;;8.20;55.10;;;;;;5067677;28;19972;-76
2023/03/27 11:24:47;;;;;;;;;;;8.10;54.40;;;;;;5069142;28;19944;-76
2023/03/27 11:27:32;;;;;;;;;;;8.10;53.20;;;;;;5068966;28;19971;-78
2023/03/27 11:29:58;;;;;;;;;;;8.10;54.80;;;;;;5049217;28;19901;-79
2023/03/27 11:32:42;;;;;;;;;;;8.20;56.10;;;;;;5064573;28;19951;-78
2023/03/27 11:35:15;;;;;;;;;;;8.40;55.10;;;;;;5047358;28;19943;-78
2023/03/27 11:37:50;;;;;;;;;;;8.50;54.60;;;;;;5062660;28;19952;-77
2023/03/27 11:40:22;;;;;;;;;;;8.70;53.10;;;;;;5046347;28;19917;-78
2023/03/27 11:42:48;;;;;;;;;;;8.80;53.00;;;;;;5058041;28;19913;-78
2023/03/27 11:45:18;;;;;;;;;;;8.50;53.90;;;;;;5067678;28;19943;-78
2023/03/27 11:47:58;;;;;;;;;;;8.40;53.40;;;;;;5046007;28;19978;-77
2023/03/27 11:50:30;;;;;;;;;;;7.80;64.60;;;;;;5064060;28;19924;-80
2023/03/27 11:53:08;;;;;;;;;;;6.50;71.60;;;;;;5048299;28;19935;-78
2023/03/27 11:55:52;;;;;;;;;;;6.00;76.50;;;;;;5071135;28;20323;-78
2023/03/27 11:58:25;;;;;;;;;;;5.50;78.30;;;;;;5043277;28;19913;-78
2023/03/27 12:00:57;;;;;;;;;;;5.30;80.80;;;;;;5062453;28;20492;-80
2023/03/27 12:03:42;;;;;;;;;;;5.30;81.90;;;;;;5060064;28;19931;-78
2023/03/27 12:06:19;;;;;;;;;;;5.30;81.10;;;;;;5064095;28;20016;-79
2023/03/27 12:08:51;;;;;;;;;;;5.40;81.70;;;;;;5069385;28;19913;-79
2023/03/27 12:11:17;;;;;;;;;;;5.60;79.30;;;;;;5051299;28;19945;-78
2023/03/27 12:13:49;;;;;;;;;;;5.50;79.60;;;;;;5065479;28;19917;-78
2023/03/27 12:16:14;;;;;;;;;;;5.70;78.50;;;;;;5048881;28;19964;-78
2023/03/27 12:18:43;;;;;;;;;;;5.80;77.50;;;;;;5078287;28;19913;-80
2023/03/27 12:21:09;;;;;;;;;;;5.80;75.60;;;;;;5058333;28;19916;-78
2023/03/27 12:23:36;;;;;;;;;;;5.80;74.80;;;;;;5051767;28;19913;-78
2023/03/27 12:26:14;;;;;;;;;;;5.90;71.80;;;;;;5043930;28;20019;-77
2023/03/27 12:28:46;;;;;;;;;;;6.10;69.00;;;;;;5050030;28;20010;-76
2023/03/27 12:31:14;;;;;;;;;;;6.20;66.70;;;;;;5052073;28;19913;-77
2023/03/27 12:33:58;;;;;;;;;;;6.20;66.40;;;;;;5065386;28;19920;-78
2023/03/27 12:36:26;;;;;;;;;;;6.40;64.00;;;;;;5045489;28;19919;-75
2023/03/27 12:38:56;;;;;;;;;;;6.50;62.10;;;;;;5056895;28;19913;-76
2023/03/27 12:41:28;;;;;;;;;;;6.60;63.00;;;;;;5048906;28;19924;-78
2023/03/27 12:43:57;;;;;;;;;;;6.70;63.90;;;;;;5042725;28;19923;-78
2023/03/27 12:46:23;;;;;;;;;;;6.80;63.30;;;;;;5063090;28;19921;-78
2023/03/27 12:48:49;;;;;;;;;;;6.80;62.20;;;;;;5049198;28;19972;-79
2023/03/27 12:51:18;;;;;;;;;;;6.90;59.90;;;;;;5044452;28;19924;-78
2023/03/27 12:53:49;;;;;;;;;;;7.10;59.20;;;;;;5058386;28;19952;-78
2023/03/27 12:56:15;;;;;;;;;;;7.20;61.30;;;;;;5069722;28;19963;-80
2023/03/27 12:58:41;;;;;;;;;;;7.50;61.10;;;;;;5044899;28;19919;-77
2023/03/27 13:01:09;;;;;;;;;;;7.60;59.20;;;;;;5064353;28;20274;-78
2023/03/27 13:03:47;;;;;;;;;;;7.00;65.70;;;;;;5048083;28;19951;-81
2023/03/27 13:06:16;;;;;;;;;;;6.30;71.10;;;;;;5069580;28;19920;-78
2023/03/27 13:08:44;;;;;;;;;;;5.70;75.70;;;;;;5063818;28;19908;-78
2023/03/27 13:11:12;;;;;;;;;;;5.40;78.10;;;;;;5060105;28;20247;-80
2023/03/27 13:13:47;;;;;;;;;;;5.30;77.30;;;;;;5051254;28;19913;-78
2023/03/27 13:16:31;;;;;;;;;;;5.20;77.90;;;;;;5066169;28;19912;-78
2023/03/27 13:19:15;;;;;;;;;;;5.20;79.60;;;;;;5043005;28;19913;-79
2023/03/27 13:21:41;;;;;;;;;;;5.20;79.30;;;;;;5043428;28;19912;-78
2023/03/27 13:24:12;;;;;;;;;;;5.30;80.40;;;;;;5049884;28;19966;-79
2023/03/27 13:26:37;;;;;;;;;;;5.40;76.20;;;;;;5059806;28;19952;-78
2023/03/27 13:29:12;;;;;;;;;;;5.50;79.00;;;;;;5036228;28;19975;-78
2023/03/27 13:31:48;;;;;;;;;;;5.70;75.80;;;;;;5039624;28;20023;-79
2023/03/27 13:34:43;;;;;;;;;;;5.80;74.00;;;;;;5067896;28;19913;-78
2023/03/27 13:37:08;;;;;;;;;;;5.90;74.70;;;;;;5030264;28;19917;-78
2023/03/27 13:39:39;;;;;;;;;;;6.00;73.30;;;;;;5058293;28;19985;-78
2023/03/27 13:42:07;;;;;;;;;;;6.10;73.70;;;;;;5057800;28;20388;-77
2023/03/27 13:44:35;;;;;;;;;;;6.20;72.30;;;;;;5048698;28;19917;-78
2023/03/27 13:47:19;;;;;;;;;;;6.30;71.90;;;;;;5032996;28;19913;-75
2023/03/27 13:49:48;;;;;;;;;;;6.40;72.70;;;;;;5054302;28;20386;-77
2023/03/27 13:52:19;;;;;;;;;;;6.40;71.90;;;;;;5017420;28;19920;-75
2023/03/27 13:55:04;;;;;;;;;;;6.40;71.10;;;;;;5047618;28;19928;-77
2023/03/27 13:57:48;;;;;;;;;;;6.40;67.40;;;;;;5044529;28;19913;-75
2023/03/27 14:00:25;;;;;;;;;;;6.30;68.90;;;;;;5043393;28;19917;-75
2023/03/27 14:02:54;;;;;;;;;;;6.30;70.40;;;;;;5027995;28;20326;-76
2023/03/27 14:05:35;;;;;;;;;;;6.30;71.60;;;;;;5036689;28;20412;-76
2023/03/27 14:08:18;;;;;;;;;;;6.40;68.70;;;;;;5042959;28;19913;-77
2023/03/27 14:11:06;;;;;;;;;;;6.40;66.50;;;;;;5047214;28;20481;-76
2023/03/27 14:14:00;;;;;;;;;;;6.30;67.80;;;;;;5041587;28;19916;-76
2023/03/27 14:16:37;;;;;;;;;;;6.30;67.70;;;;;;5048699;28;19917;-77
2023/03/27 14:19:25;;;;;;;;;;;6.30;66.70;;;;;;5033258;28;19920;-76
2023/03/27 14:22:06;;;;;;;;;;;6.40;68.10;;;;;;5050739;28;20372;-76
2023/03/27 14:24:36;;;;;;;;;;;6.70;66.40;;;;;;5049459;28;19964;-76
2023/03/27 14:27:02;;;;;;;;;;;7.00;67.30;;;;;;5043312;28;19917;-76
2023/03/27 14:29:28;;;;;;;;;;;7.20;67.50;;;;;;5030040;28;19917;-76
2023/03/27 14:32:00;;;;;;;;;;;7.30;64.60;;;;;;5031431;28;19939;-77
2023/03/27 14:34:28;;;;;;;;;;;7.50;66.30;;;;;;5033039;28;19916;-77
2023/03/27 14:36:54;;;;;;;;;;;7.50;67.20;;;;;;5051211;28;20379;-77
2023/03/27 14:39:24;;;;;;;;;;;7.50;64.40;;;;;;5035718;28;19913;-77
2023/03/27 14:41:55;;;;;;;;;;;7.60;65.00;;;;;;5033819;28;19916;-77
2023/03/27 14:44:22;;;;;;;;;;;7.90;64.50;;;;;;5048536;28;20000;-77
2023/03/27 14:46:49;;;;;;;;;;;7.90;62.20;;;;;;5056316;28;19946;-76